createdAt,value
2018-09-21T18:01:02.411Z,18.23
2018-09-21T18:03:31.013Z,18.04
2018-09-21T18:05:59.659Z,17.89
2018-09-21T18:08:28.148Z,17.72
2018-09-21T18:10:56.964Z,17.68
2018-09-21T18:13:25.457Z,17.62
2018-09-21T18:15:54.914Z,17.44
2018-09-21T18:18:23.326Z,17.41
2018-09-21T18:20:51.815Z,17.32
2018-09-21T18:23:21.016Z,17.25
2018-09-21T18:25:49.932Z,17.19
2018-09-21T18:28:18.573Z,17.12
2018-09-21T18:30:47.106Z,17.13
2018-09-21T18:33:16.728Z,17.04
2018-09-21T18:35:45.387Z,17.02
2018-09-21T18:38:14.850Z,16.99
2018-09-21T18:40:43.696Z,16.99
2018-09-21T18:43:12.492Z,16.98
2018-09-21T18:45:41.774Z,16.91
2018-09-21T18:48:10.734Z,16.85
2018-09-21T18:50:39.652Z,16.74
2018-09-21T18:53:08.360Z,16.71
2018-09-21T18:55:38.316Z,16.70
2018-09-21T18:58:07.460Z,16.68
2018-09-21T19:00:36.668Z,16.64
2018-09-21T19:03:05.755Z,16.65
2018-09-21T19:05:35.173Z,16.58
2018-09-21T19:08:04.424Z,16.56
2018-09-21T19:10:33.371Z,16.57
2018-09-21T19:13:02.146Z,16.56
2018-09-21T19:15:31.118Z,16.55
2018-09-21T19:18:17.659Z,16.53
2018-09-21T19:21:03.047Z,16.45
2018-09-21T19:23:36.727Z,16.43
2018-09-21T19:29:09.805Z,16.35
2018-09-21T19:31:40.158Z,16.35
2018-09-21T19:34:16.179Z,16.31
2018-09-21T19:36:51.427Z,16.25
2018-09-21T19:39:25.662Z,16.33
2018-09-21T19:42:03.962Z,16.38
2018-09-21T19:44:37.916Z,16.31
2018-09-21T19:47:15.372Z,16.35
2018-09-21T19:49:48.580Z,16.37
2018-09-21T19:52:24.680Z,16.29
2018-09-21T19:54:59.287Z,16.22
2018-09-21T20:14:44.332Z,15.88
2018-09-21T20:20:27.769Z,15.79
2018-09-21T20:23:00.692Z,15.78
2018-09-21T20:25:36.045Z,15.72
2018-09-21T20:28:13.744Z,15.72
2018-09-21T20:30:55.357Z,15.73
2018-09-21T20:33:31.564Z,15.68
2018-09-21T20:36:00.361Z,15.60
2018-09-21T20:38:29.935Z,15.58
2018-09-21T20:40:59.005Z,15.58
2018-09-21T20:43:27.764Z,15.58
2018-09-21T20:45:57.032Z,15.57
2018-09-21T20:48:25.684Z,15.54
2018-09-21T20:50:54.399Z,15.52
2018-09-21T20:53:25.002Z,15.45
2018-09-21T20:55:54.523Z,15.44
2018-09-21T20:58:23.101Z,15.38
2018-09-21T21:00:51.729Z,15.35
2018-09-21T21:03:21.271Z,15.31
2018-09-21T21:05:49.875Z,15.31
2018-09-21T21:08:18.575Z,15.28
2018-09-21T21:10:47.216Z,15.30
2018-09-21T21:13:16.074Z,15.27
2018-09-21T21:15:44.966Z,15.23
2018-09-21T21:18:13.769Z,15.25
2018-09-21T21:20:42.483Z,15.20
2018-09-21T21:23:11.731Z,15.16
2018-09-21T21:28:08.192Z,15.11
2018-09-21T21:30:37.697Z,15.11
2018-09-21T21:33:07.354Z,15.11
2018-09-21T21:35:36.170Z,15.05
2018-09-21T21:38:04.640Z,15.00
2018-09-21T21:40:33.434Z,15.00
2018-09-21T21:43:02.009Z,15.00
2018-09-21T21:45:30.699Z,14.99
2018-09-21T21:48:00.283Z,15.00
2018-09-21T21:50:29.269Z,15.03
2018-09-21T21:52:58.018Z,15.06
2018-09-21T21:55:27.288Z,15.02
2018-09-21T21:57:55.840Z,15.00
2018-09-21T22:00:28.270Z,14.97
2018-09-21T22:02:56.832Z,14.95
2018-09-21T22:05:25.506Z,14.92
2018-09-21T22:07:54.254Z,14.87
2018-09-21T22:10:22.720Z,14.89
2018-09-21T22:12:56.880Z,14.91
2018-09-21T22:15:25.769Z,14.85
2018-09-21T22:17:54.484Z,14.86
2018-09-21T22:20:22.987Z,14.86
2018-09-21T22:22:52.180Z,14.87
2018-09-21T22:25:20.639Z,14.83
2018-09-21T22:27:49.487Z,14.81
2018-09-21T22:30:17.989Z,14.76
2018-09-21T22:32:46.772Z,14.77
2018-09-21T22:35:15.503Z,14.77
2018-09-21T22:37:44.092Z,14.78
2018-09-21T22:40:12.744Z,14.76
2018-09-21T22:42:41.926Z,14.78
2018-09-21T22:45:10.773Z,14.79
2018-09-21T22:47:39.337Z,14.80
2018-09-21T22:50:07.810Z,14.80
2018-09-21T22:52:36.398Z,14.77
2018-09-21T22:55:05.556Z,14.81
2018-09-21T22:57:34.020Z,14.87
2018-09-21T23:00:02.604Z,14.81
2018-09-21T23:02:31.321Z,14.78
2018-09-21T23:04:59.767Z,14.83
2018-09-21T23:07:28.347Z,14.85
2018-09-21T23:09:56.945Z,14.87
2018-09-21T23:12:25.825Z,14.91
2018-09-21T23:14:54.461Z,14.96
2018-09-21T23:17:23.053Z,14.98
2018-09-21T23:19:51.527Z,15.01
2018-09-21T23:22:21.143Z,15.01
2018-09-21T23:24:49.821Z,14.99
2018-09-21T23:27:18.406Z,15.00
2018-09-21T23:29:46.853Z,15.02
2018-09-21T23:32:16.081Z,15.03
2018-09-21T23:34:44.851Z,15.00
2018-09-21T23:37:13.305Z,14.95
2018-09-21T23:39:41.801Z,14.85
2018-09-21T23:42:10.506Z,14.82
2018-09-21T23:44:39.356Z,14.78
2018-09-21T23:47:08.008Z,14.72
2018-09-21T23:49:36.584Z,14.68
2018-09-21T23:52:05.505Z,14.67
2018-09-21T23:54:34.030Z,14.66
2018-09-21T23:57:10.075Z,14.65
2018-09-21T23:59:38.793Z,14.69
